Time;durP1;ratioP1;P1;durP2;ratioP2;P2;SDS_P1;SDS_P2;PMS_P1;PMS_P2;Temp;Humidity;BMP_temperature;BMP_pressure;BME280_temperature;BME280_humidity;BME280_pressure;Samples;Min_cycle;Max_cycle;Signal;HPM_P1;HPM_P2
2023/10/09 00:00:50;;;;;;;;;;;14.30;99.90;;;;;;5116148;28;19923;-41
2023/10/09 00:03:23;;;;;;;;;;;14.30;99.90;;;;;;5115367;28;20018;-42
2023/10/09 00:05:52;;;;;;;;;;;14.30;99.90;;;;;;5115794;28;19928;-41
2023/10/09 00:08:30;;;;;;;;;;;14.30;99.90;;;;;;5115821;28;20378;-41
2023/10/09 00:11:13;;;;;;;;;;;14.40;99.90;;;;;;5116348;28;19924;-41
2023/10/09 00:13:48;;;;;;;;;;;14.30;99.90;;;;;;5115889;28;19924;-41
2023/10/09 00:16:24;;;;;;;;;;;14.30;99.90;;;;;;5115816;28;20378;-41
2023/10/09 00:18:50;;;;;;;;;;;14.30;99.90;;;;;;5115970;28;19924;-41
2023/10/09 00:21:17;;;;;;;;;;;14.30;99.90;;;;;;5115705;28;19924;-41
2023/10/09 00:23:42;;;;;;;;;;;14.30;99.90;;;;;;5115823;28;19927;-41
2023/10/09 00:26:12;;;;;;;;;;;14.30;99.90;;;;;;5115911;28;19969;-41
2023/10/09 00:28:43;;;;;;;;;;;14.30;99.90;;;;;;5115553;28;20038;-41
2023/10/09 00:31:14;;;;;;;;;;;14.30;99.90;;;;;;5115910;28;19982;-41
2023/10/09 00:33:40;;;;;;;;;;;14.30;99.90;;;;;;5114950;28;19924;-42
2023/10/09 00:36:09;;;;;;;;;;;14.30;99.90;;;;;;5114669;28;19932;-41
2023/10/09 00:38:35;;;;;;;;;;;14.40;99.90;;;;;;5115361;28;19977;-41
2023/10/09 00:41:10;;;;;;;;;;;14.30;99.90;;;;;;5115408;28;19924;-41
2023/10/09 00:43:37;;;;;;;;;;;14.40;99.90;;;;;;5115430;27;19953;-41
2023/10/09 00:46:04;;;;;;;;;;;14.40;99.90;;;;;;5115334;28;19928;-41
2023/10/09 00:48:37;;;;;;;;;;;14.40;99.90;;;;;;5114366;28;19950;-41
2023/10/09 00:51:17;;;;;;;;;;;14.40;99.90;;;;;;5115385;28;19927;-41
2023/10/09 00:53:50;;;;;;;;;;;14.40;99.90;;;;;;5114889;28;19927;-42
2023/10/09 00:59:14;;;;;;;;;;;14.40;99.90;;;;;;5115257;28;19931;-41
2023/10/09 01:01:45;;;;;;;;;;;14.40;99.90;;;;;;5115071;28;19924;-41
2023/10/09 01:04:11;;;;;;;;;;;14.40;99.90;;;;;;5115042;28;19924;-41
2023/10/09 01:06:43;;;;;;;;;;;14.40;99.90;;;;;;5115044;28;19943;-41
2023/10/09 01:09:10;;;;;;;;;;;14.40;99.90;;;;;;5131407;27;19930;-41
2023/10/09 01:11:47;;;;;;;;;;;14.40;99.90;;;;;;5115027;28;19923;-42
2023/10/09 01:14:13;;;;;;;;;;;14.40;99.90;;;;;;5114967;28;20293;-41
2023/10/09 01:16:46;;;;;;;;;;;14.40;99.90;;;;;;5114741;28;19924;-41
2023/10/09 01:19:30;;;;;;;;;;;14.40;99.90;;;;;;5115300;28;19924;-41
2023/10/09 01:22:04;;;;;;;;;;;14.40;99.90;;;;;;5114961;28;19924;-41
2023/10/09 01:24:31;;;;;;;;;;;14.40;99.90;;;;;;5114758;28;19968;-41
2023/10/09 01:26:59;;;;;;;;;;;14.40;99.90;;;;;;5114643;28;19977;-41
2023/10/09 01:29:27;;;;;;;;;;;14.40;99.90;;;;;;5114410;28;19931;-41
2023/10/09 01:32:00;;;;;;;;;;;14.40;99.90;;;;;;5113734;28;20060;-41
2023/10/09 01:34:49;;;;;;;;;;;14.40;99.90;;;;;;5115069;27;20019;-41
2023/10/09 01:37:19;;;;;;;;;;;14.40;99.90;;;;;;5113561;28;19928;-41
2023/10/09 01:42:46;;;;;;;;;;;14.40;99.90;;;;;;5114721;28;20329;-41
2023/10/09 01:47:41;;;;;;;;;;;14.40;99.90;;;;;;5114473;28;19924;-41
2023/10/09 01:50:19;;;;;;;;;;;14.40;99.90;;;;;;5114417;28;19931;-41
2023/10/09 01:52:45;;;;;;;;;;;14.40;99.90;;;;;;5113822;28;19924;-41
2023/10/09 01:55:27;;;;;;;;;;;14.40;99.90;;;;;;5114702;28;19924;-41
2023/10/09 01:57:53;;;;;;;;;;;14.40;99.90;;;;;;5114320;28;19928;-41
2023/10/09 02:00:23;;;;;;;;;;;14.40;99.90;;;;;;5114153;28;19982;-41
2023/10/09 02:02:50;;;;;;;;;;;14.40;99.90;;;;;;5114110;28;19931;-42
2023/10/09 02:07:44;;;;;;;;;;;14.40;99.90;;;;;;5118390;28;20375;-41
2023/10/09 02:12:54;;;;;;;;;;;14.40;99.90;;;;;;5118328;28;19930;-41
2023/10/09 02:15:40;;;;;;;;;;;14.40;99.90;;;;;;5117181;28;19924;-41
2023/10/09 02:18:17;;;;;;;;;;;14.40;99.90;;;;;;5118569;28;20014;-41
2023/10/09 02:20:45;;;;;;;;;;;14.40;99.90;;;;;;5118072;28;19934;-41
2023/10/09 02:23:13;;;;;;;;;;;14.40;99.90;;;;;;5118034;28;19924;-41
2023/10/09 02:25:43;;;;;;;;;;;14.40;99.90;;;;;;5117898;28;19923;-41
2023/10/09 02:28:17;;;;;;;;;;;14.30;99.90;;;;;;5118142;28;19946;-41
2023/10/09 02:30:47;;;;;;;;;;;14.40;99.90;;;;;;5118428;28;19953;-41
2023/10/09 02:33:27;;;;;;;;;;;14.40;99.90;;;;;;5118059;28;19927;-41
2023/10/09 02:35:59;;;;;;;;;;;14.30;99.90;;;;;;5117991;28;19980;-41
2023/10/09 02:38:27;;;;;;;;;;;14.30;99.90;;;;;;5117772;28;20014;-41
2023/10/09 02:43:31;;;;;;;;;;;14.30;99.90;;;;;;5117953;28;19923;-41
2023/10/09 02:45:56;;;;;;;;;;;14.30;99.90;;;;;;5117758;28;20374;-41
2023/10/09 02:48:27;;;;;;;;;;;14.40;99.90;;;;;;5116528;28;19935;-41
2023/10/09 02:50:54;;;;;;;;;;;14.30;99.90;;;;;;5116656;28;19994;-41
2023/10/09 02:53:19;;;;;;;;;;;14.30;99.90;;;;;;5117603;28;19967;-41
2023/10/09 02:56:37;;;;;;;;;;;14.40;99.90;;;;;;5117295;28;19938;-41
2023/10/09 02:58:36;;;;;;;;;;;14.30;99.90;;;;;;5105615;28;19924;-41
2023/10/09 03:01:02;;;;;;;;;;;14.30;99.90;;;;;;5116389;28;19931;-41
2023/10/09 03:03:28;;;;;;;;;;;14.30;99.90;;;;;;5117659;28;19924;-41
2023/10/09 03:05:53;;;;;;;;;;;14.30;99.90;;;;;;5117403;28;19946;-41
2023/10/09 03:08:19;;;;;;;;;;;14.30;99.90;;;;;;5117262;28;20371;-40
2023/10/09 03:10:45;;;;;;;;;;;14.30;99.90;;;;;;5117053;28;19931;-41
2023/10/09 03:13:10;;;;;;;;;;;14.40;99.90;;;;;;5116996;28;19928;-41
2023/10/09 03:15:38;;;;;;;;;;;14.30;99.90;;;;;;5116880;28;19923;-41
2023/10/09 03:18:06;;;;;;;;;;;14.40;99.90;;;;;;5116599;28;19930;-41
2023/10/09 03:20:32;;;;;;;;;;;14.40;99.90;;;;;;5117018;28;20057;-41
2023/10/09 03:22:57;;;;;;;;;;;14.40;99.90;;;;;;5117439;28;20010;-41
2023/10/09 03:25:24;;;;;;;;;;;14.40;99.90;;;;;;5116991;28;19924;-41
2023/10/09 03:27:51;;;;;;;;;;;14.40;99.90;;;;;;5116897;28;20370;-41
2023/10/09 03:30:23;;;;;;;;;;;14.50;99.90;;;;;;5116818;28;20367;-41
2023/10/09 03:32:52;;;;;;;;;;;14.50;99.90;;;;;;5117223;28;19947;-41
2023/10/09 03:35:24;;;;;;;;;;;14.60;99.90;;;;;;5117166;28;19924;-41
2023/10/09 03:37:51;;;;;;;;;;;14.60;99.90;;;;;;5115928;28;19923;-41
2023/10/09 03:40:17;;;;;;;;;;;14.60;99.90;;;;;;5116643;28;20015;-41
2023/10/09 03:42:46;;;;;;;;;;;14.60;99.90;;;;;;5116410;28;19923;-41
2023/10/09 03:45:27;;;;;;;;;;;14.70;99.90;;;;;;5116572;28;20423;-41
2023/10/09 03:48:43;;;;;;;;;;;14.70;99.90;;;;;;5115642;28;19928;-41
2023/10/09 03:50:43;;;;;;;;;;;14.70;99.90;;;;;;5108801;27;19963;-41
2023/10/09 03:53:11;;;;;;;;;;;14.70;99.90;;;;;;5116206;28;19970;-42
2023/10/09 03:55:40;;;;;;;;;;;14.70;99.90;;;;;;5116406;28;19923;-41
2023/10/09 03:58:06;;;;;;;;;;;14.80;99.90;;;;;;5116371;28;19924;-40
2023/10/09 04:00:34;;;;;;;;;;;14.80;99.90;;;;;;5115218;28;19924;-41
2023/10/09 04:03:00;;;;;;;;;;;14.80;99.90;;;;;;5116214;28;19924;-41
2023/10/09 04:05:26;;;;;;;;;;;14.80;99.90;;;;;;5115742;28;19923;-41
2023/10/09 04:07:53;;;;;;;;;;;14.80;99.90;;;;;;5116065;28;19924;-41
2023/10/09 04:13:10;;;;;;;;;;;14.90;99.90;;;;;;5116045;28;19930;-41
2023/10/09 04:15:36;;;;;;;;;;;14.90;99.90;;;;;;5116095;28;19981;-40
2023/10/09 04:18:03;;;;;;;;;;;14.90;99.90;;;;;;5115680;28;20390;-41
2023/10/09 04:23:04;;;;;;;;;;;15.00;99.90;;;;;;5115962;28;19931;-40
2023/10/09 04:25:40;;;;;;;;;;;15.10;99.90;;;;;;5115038;28;19924;-40
2023/10/09 04:28:09;;;;;;;;;;;15.20;99.90;;;;;;5115300;28;19958;-40
2023/10/09 04:30:42;;;;;;;;;;;15.20;99.90;;;;;;5115517;28;19978;-40
2023/10/09 04:33:28;;;;;;;;;;;15.30;99.90;;;;;;5115686;28;19924;-40
2023/10/09 04:36:16;;;;;;;;;;;15.30;99.90;;;;;;5115636;28;19924;-40
2023/10/09 04:38:52;;;;;;;;;;;15.30;99.90;;;;;;5115395;28;19924;-40
2023/10/09 04:41:27;;;;;;;;;;;15.30;99.90;;;;;;5115388;28;20427;-40
2023/10/09 04:46:43;;;;;;;;;;;15.40;99.90;;;;;;5115401;28;20393;-40
2023/10/09 04:49:27;;;;;;;;;;;15.40;99.90;;;;;;5115392;28;19923;-40
2023/10/09 04:52:07;;;;;;;;;;;15.40;99.90;;;;;;5115615;28;20018;-40
2023/10/09 04:55:04;;;;;;;;;;;15.40;99.90;;;;;;5115332;28;19946;-40
2023/10/09 04:57:27;;;;;;;;;;;15.50;99.90;;;;;;5115043;28;19924;-41
2023/10/09 04:59:54;;;;;;;;;;;15.50;99.90;;;;;;5115023;28;20025;-41
2023/10/09 05:02:20;;;;;;;;;;;15.50;99.90;;;;;;5115023;28;20014;-40
2023/10/09 05:05:01;;;;;;;;;;;15.50;99.90;;;;;;5115033;28;19967;-40
2023/10/09 05:07:54;;;;;;;;;;;15.50;99.90;;;;;;5114869;28;19939;-40
2023/10/09 05:10:17;;;;;;;;;;;15.50;99.90;;;;;;5114996;28;19949;-40
2023/10/09 05:12:56;;;;;;;;;;;15.60;99.90;;;;;;5114972;28;19928;-40
2023/10/09 05:15:29;;;;;;;;;;;15.60;99.90;;;;;;5114857;28;20382;-40
2023/10/09 05:18:09;;;;;;;;;;;15.50;99.90;;;;;;5115152;28;19923;-40
2023/10/09 05:23:25;;;;;;;;;;;15.60;99.90;;;;;;5113820;28;19945;-40
2023/10/09 05:25:55;;;;;;;;;;;15.60;99.90;;;;;;5115148;28;20353;-40
2023/10/09 05:28:48;;;;;;;;;;;15.60;99.90;;;;;;5114646;28;19924;-40
2023/10/09 05:31:45;;;;;;;;;;;15.70;99.90;;;;;;5114613;28;19928;-40
2023/10/09 05:34:01;;;;;;;;;;;15.60;99.90;;;;;;5114652;28;19924;-40
2023/10/09 05:38:58;;;;;;;;;;;15.70;99.90;;;;;;5114362;28;20030;-40
2023/10/09 05:41:47;;;;;;;;;;;15.70;99.90;;;;;;5114380;28;19924;-40
2023/10/09 05:49:54;;;;;;;;;;;15.70;99.90;;;;;;5114347;28;20445;-39
2023/10/09 06:08:47;;;;;;;;;;;15.70;99.90;;;;;;5114277;28;19923;-39
2023/10/09 06:14:12;;;;;;;;;;;15.80;99.90;;;;;;5114396;28;19924;-40
2023/10/09 06:16:41;;;;;;;;;;;15.80;99.90;;;;;;5113516;28;19924;-40
2023/10/09 06:19:07;;;;;;;;;;;15.80;99.90;;;;;;5114007;28;19923;-41
2023/10/09 06:22:19;;;;;;;;;;;15.80;99.90;;;;;;5113858;27;19924;-39
2023/10/09 06:24:33;;;;;;;;;;;15.80;99.90;;;;;;5113977;28;19924;-40
2023/10/09 06:29:50;;;;;;;;;;;15.80;99.90;;;;;;5114148;28;19924;-40
2023/10/09 06:34:50;;;;;;;;;;;15.80;99.90;;;;;;5114042;28;19928;-40
2023/10/09 06:47:41;;;;;;;;;;;15.80;99.90;;;;;;5114313;28;19924;-39
2023/10/09 06:56:01;;;;;;;;;;;15.90;99.90;;;;;;5117691;28;20372;-40
2023/10/09 06:58:26;;;;;;;;;;;15.90;99.90;;;;;;5117587;28;19939;-40
2023/10/09 07:03:29;;;;;;;;;;;15.90;99.90;;;;;;5117855;28;19970;-40
2023/10/09 07:16:59;;;;;;;;;;;15.90;99.90;;;;;;5117241;28;19968;-40
2023/10/09 07:22:03;;;;;;;;;;;15.90;99.90;;;;;;5116829;28;19949;-39
2023/10/09 07:24:43;;;;;;;;;;;15.90;99.90;;;;;;5117247;28;19924;-39
2023/10/09 07:27:14;;;;;;;;;;;15.90;99.90;;;;;;5117092;28;19977;-39
2023/10/09 07:29:49;;;;;;;;;;;15.90;99.90;;;;;;5116958;28;19931;-39
2023/10/09 07:32:20;;;;;;;;;;;15.90;99.90;;;;;;5116929;28;19976;-40
2023/10/09 07:34:52;;;;;;;;;;;15.90;99.90;;;;;;5117041;27;19924;-40
2023/10/09 07:37:30;;;;;;;;;;;15.90;99.90;;;;;;5117210;28;20276;-40
2023/10/09 07:40:02;;;;;;;;;;;16.00;99.90;;;;;;5115977;28;19923;-40
2023/10/09 07:43:05;;;;;;;;;;;16.00;99.90;;;;;;5116802;28;19924;-40
2023/10/09 07:48:04;;;;;;;;;;;16.00;99.90;;;;;;5116595;28;19946;-40
2023/10/09 07:50:48;;;;;;;;;;;16.00;99.90;;;;;;5116591;27;19924;-39
2023/10/09 07:53:26;;;;;;;;;;;16.00;99.90;;;;;;5115365;28;20057;-40
2023/10/09 07:55:55;;;;;;;;;;;16.00;99.90;;;;;;5116695;28;20022;-40
2023/10/09 07:58:25;;;;;;;;;;;16.00;99.90;;;;;;5116318;28;19963;-40
2023/10/09 08:01:15;;;;;;;;;;;16.00;99.90;;;;;;5116181;28;19924;-40
2023/10/09 08:03:45;;;;;;;;;;;16.00;99.90;;;;;;5113909;28;19938;-40
2023/10/09 08:11:59;;;;;;;;;;;16.10;99.90;;;;;;5116128;28;19930;-40
2023/10/09 08:20:11;;;;;;;;;;;16.10;99.90;;;;;;5073024;28;19929;-40
2023/10/09 08:22:43;;;;;;;;;;;16.00;99.90;;;;;;5073449;28;20327;-40
2023/10/09 08:27:57;;;;;;;;;;;16.10;99.90;;;;;;5116168;28;19992;-40
2023/10/09 08:33:02;;;;;;;;;;;16.10;99.90;;;;;;5115616;28;19927;-40
2023/10/09 08:35:47;;;;;;;;;;;16.10;99.90;;;;;;5115718;28;20018;-40
2023/10/09 08:38:23;;;;;;;;;;;16.10;99.90;;;;;;5115698;28;20417;-40
2023/10/09 08:40:50;;;;;;;;;;;16.10;99.90;;;;;;5115595;28;19924;-40
2023/10/09 08:43:17;;;;;;;;;;;16.20;99.90;;;;;;5114521;28;20002;-40
2023/10/09 08:45:52;;;;;;;;;;;16.20;99.90;;;;;;5115233;28;20370;-40
2023/10/09 08:48:19;;;;;;;;;;;16.20;99.90;;;;;;5115339;28;19931;-40
2023/10/09 08:50:45;;;;;;;;;;;16.20;99.90;;;;;;5115394;28;20286;-40
2023/10/09 08:53:16;;;;;;;;;;;16.20;99.90;;;;;;5115441;28;20014;-40
2023/10/09 08:55:42;;;;;;;;;;;16.20;99.90;;;;;;5115049;28;19924;-40
2023/10/09 09:00:48;;;;;;;;;;;16.20;99.90;;;;;;5115012;28;20396;-40
2023/10/09 09:03:22;;;;;;;;;;;16.20;99.90;;;;;;5115120;28;19924;-40
2023/10/09 09:06:00;;;;;;;;;;;16.30;99.90;;;;;;5114938;28;19923;-40
2023/10/09 09:08:28;;;;;;;;;;;16.20;99.90;;;;;;5115040;28;20375;-40
2023/10/09 09:11:35;;;;;;;;;;;16.30;99.90;;;;;;5115506;27;20272;-40
2023/10/09 09:13:58;;;;;;;;;;;16.30;99.90;;;;;;5112324;28;20259;-40
2023/10/09 09:16:30;;;;;;;;;;;16.30;99.90;;;;;;5114021;28;19924;-40
2023/10/09 09:19:00;;;;;;;;;;;16.40;99.90;;;;;;5114930;28;20367;-40
2023/10/09 09:21:27;;;;;;;;;;;16.40;99.90;;;;;;5114770;28;19927;-40
2023/10/09 09:23:54;;;;;;;;;;;16.40;99.90;;;;;;5130925;27;19965;-40
2023/10/09 09:26:36;;;;;;;;;;;16.40;99.90;;;;;;5114768;28;19924;-40
2023/10/09 09:29:03;;;;;;;;;;;16.40;99.90;;;;;;5114705;28;19931;-41
2023/10/09 09:31:29;;;;;;;;;;;16.50;99.90;;;;;;5114520;28;20344;-39
2023/10/09 09:34:04;;;;;;;;;;;16.50;99.90;;;;;;5114767;28;19969;-40
2023/10/09 09:36:33;;;;;;;;;;;16.50;99.90;;;;;;5114758;28;19924;-40
2023/10/09 09:39:01;;;;;;;;;;;16.50;99.90;;;;;;5114628;28;19923;-40
2023/10/09 09:41:27;;;;;;;;;;;16.50;99.90;;;;;;5114354;28;19924;-40
2023/10/09 09:43:55;;;;;;;;;;;16.60;99.90;;;;;;5114367;28;20017;-40
2023/10/09 09:46:27;;;;;;;;;;;16.60;99.90;;;;;;5114817;28;19923;-40
2023/10/09 09:48:54;;;;;;;;;;;16.60;99.90;;;;;;5114647;28;20271;-41
2023/10/09 09:51:19;;;;;;;;;;;16.60;99.90;;;;;;5114755;28;19924;-41
2023/10/09 09:53:49;;;;;;;;;;;16.60;99.90;;;;;;5114376;28;20260;-40
2023/10/09 09:56:18;;;;;;;;;;;16.60;99.90;;;;;;5114356;28;19930;-41
2023/10/09 09:58:46;;;;;;;;;;;16.60;99.90;;;;;;5114450;28;19928;-41
2023/10/09 10:01:56;;;;;;;;;;;16.70;99.90;;;;;;5114440;28;19931;-40
2023/10/09 10:04:14;;;;;;;;;;;16.70;99.90;;;;;;5112115;28;19927;-41
2023/10/09 10:06:45;;;;;;;;;;;16.60;99.90;;;;;;5114036;28;20430;-41
2023/10/09 10:09:32;;;;;;;;;;;16.60;99.90;;;;;;5114117;28;20363;-41
2023/10/09 10:12:04;;;;;;;;;;;16.60;99.90;;;;;;5114431;28;19931;-40
2023/10/09 10:14:49;;;;;;;;;;;16.70;99.90;;;;;;5114225;28;20022;-41
2023/10/09 10:17:18;;;;;;;;;;;16.70;99.90;;;;;;5114027;28;19930;-41
2023/10/09 10:20:25;;;;;;;;;;;16.70;99.90;;;;;;5114283;28;19989;-41
2023/10/09 10:22:50;;;;;;;;;;;16.70;99.90;;;;;;5113816;28;20279;-41
2023/10/09 10:25:32;;;;;;;;;;;16.70;99.90;;;;;;5114166;28;20023;-42
2023/10/09 10:28:28;;;;;;;;;;;16.70;99.90;;;;;;5117667;28;20056;-41
2023/10/09 10:30:54;;;;;;;;;;;16.70;99.90;;;;;;5117305;28;19924;-41
2023/10/09 10:33:22;;;;;;;;;;;16.80;99.90;;;;;;5118077;28;19924;-41
2023/10/09 10:35:52;;;;;;;;;;;16.80;99.90;;;;;;5117759;28;19931;-41
2023/10/09 10:38:24;;;;;;;;;;;16.80;99.90;;;;;;5117928;28;19924;-41
2023/10/09 10:41:00;;;;;;;;;;;16.80;99.90;;;;;;5117764;28;19928;-41
2023/10/09 10:43:47;;;;;;;;;;;16.80;99.90;;;;;;5118145;28;20306;-40
2023/10/09 10:46:23;;;;;;;;;;;16.80;99.90;;;;;;5117811;28;19935;-41
2023/10/09 10:48:58;;;;;;;;;;;16.80;99.90;;;;;;5117833;28;19931;-40
2023/10/09 10:51:23;;;;;;;;;;;16.80;99.90;;;;;;5117806;28;19932;-40
2023/10/09 10:53:57;;;;;;;;;;;16.80;99.90;;;;;;5117599;28;20267;-40
2023/10/09 10:56:34;;;;;;;;;;;16.80;99.90;;;;;;5116759;28;20329;-41
2023/10/09 11:01:53;;;;;;;;;;;16.70;99.90;;;;;;5117365;28;19998;-42
2023/10/09 11:04:27;;;;;;;;;;;16.70;99.90;;;;;;5117444;28;19939;-41
2023/10/09 11:15:37;;;;;;;;;;;16.60;99.90;;;;;;5117162;28;20252;-40
2023/10/09 11:18:07;;;;;;;;;;;16.60;99.90;;;;;;5117319;28;19957;-40
2023/10/09 11:20:38;;;;;;;;;;;16.60;99.90;;;;;;5117088;28;20280;-41
2023/10/09 11:25:52;;;;;;;;;;;16.60;99.90;;;;;;5117179;28;19923;-41
2023/10/09 11:28:29;;;;;;;;;;;16.60;99.90;;;;;;5116883;28;20393;-40
2023/10/09 11:30:58;;;;;;;;;;;16.70;99.90;;;;;;5117061;28;20069;-40
2023/10/09 11:33:29;;;;;;;;;;;16.70;99.90;;;;;;5116860;28;19923;-40
2023/10/09 11:35:57;;;;;;;;;;;16.70;99.90;;;;;;5116807;28;20367;-41
2023/10/09 11:38:23;;;;;;;;;;;16.80;99.90;;;;;;5116470;28;20452;-41
2023/10/09 11:43:24;;;;;;;;;;;16.80;99.90;;;;;;5116750;28;19924;-40
2023/10/09 11:45:56;;;;;;;;;;;16.90;99.90;;;;;;5116743;28;20444;-41
2023/10/09 11:49:15;;;;;;;;;;;16.90;99.90;;;;;;5116454;28;19930;-41
2023/10/09 11:51:21;;;;;;;;;;;17.00;99.90;;;;;;5110481;28;19924;-40
2023/10/09 11:53:49;;;;;;;;;;;17.00;99.90;;;;;;5116374;28;20420;-40
2023/10/09 11:56:19;;;;;;;;;;;17.00;99.90;;;;;;5116428;28;19930;-41
2023/10/09 11:58:50;;;;;;;;;;;17.00;99.90;;;;;;5116382;28;19931;-41
2023/10/09 12:01:22;;;;;;;;;;;17.00;99.90;;;;;;5115987;28;20404;-41
2023/10/09 12:03:52;;;;;;;;;;;16.90;99.90;;;;;;5116354;28;19938;-41
2023/10/09 12:06:24;;;;;;;;;;;16.90;99.90;;;;;;5114931;28;19923;-41
2023/10/09 12:08:50;;;;;;;;;;;16.90;99.90;;;;;;5116259;28;19978;-41
2023/10/09 12:11:22;;;;;;;;;;;16.90;99.90;;;;;;5116191;28;19974;-41
2023/10/09 12:13:48;;;;;;;;;;;16.90;99.90;;;;;;5116191;28;19923;-40
2023/10/09 12:16:15;;;;;;;;;;;16.90;99.90;;;;;;5115789;28;20347;-41
2023/10/09 12:18:41;;;;;;;;;;;16.80;99.90;;;;;;5116050;28;19930;-41
2023/10/09 12:21:06;;;;;;;;;;;16.80;99.90;;;;;;5116190;28;19924;-41
2023/10/09 12:23:43;;;;;;;;;;;16.80;99.90;;;;;;5116212;28;20483;-41
2023/10/09 12:26:14;;;;;;;;;;;16.70;99.90;;;;;;5115940;28;20057;-41
2023/10/09 12:28:40;;;;;;;;;;;16.70;99.90;;;;;;5115670;28;20391;-41
2023/10/09 12:31:05;;;;;;;;;;;16.70;99.90;;;;;;5116036;28;19924;-41
2023/10/09 12:33:31;;;;;;;;;;;16.70;99.90;;;;;;5115955;28;19928;-41
2023/10/09 12:36:00;;;;;;;;;;;16.70;99.90;;;;;;5115878;27;20397;-41
2023/10/09 12:38:31;;;;;;;;;;;16.70;99.90;;;;;;5115591;28;19971;-40
2023/10/09 12:41:19;;;;;;;;;;;16.70;99.90;;;;;;5115671;28;20355;-40
2023/10/09 12:43:45;;;;;;;;;;;16.80;99.90;;;;;;5115623;28;20024;-41
2023/10/09 12:46:15;;;;;;;;;;;16.80;99.90;;;;;;5115784;28;19927;-41
2023/10/09 12:48:47;;;;;;;;;;;16.80;99.90;;;;;;5115353;28;20024;-41
2023/10/09 12:51:16;;;;;;;;;;;16.80;99.90;;;;;;5115322;28;19981;-41
2023/10/09 12:53:45;;;;;;;;;;;16.80;99.90;;;;;;5115272;28;20006;-41
2023/10/09 12:56:12;;;;;;;;;;;16.80;99.90;;;;;;5115743;28;19930;-41
2023/10/09 12:58:37;;;;;;;;;;;16.80;99.90;;;;;;5115296;28;20011;-40
2023/10/09 13:01:09;;;;;;;;;;;16.80;99.90;;;;;;5115079;27;20022;-41
2023/10/09 13:03:40;;;;;;;;;;;16.70;99.90;;;;;;5115142;28;19931;-40
2023/10/09 13:06:10;;;;;;;;;;;16.80;99.90;;;;;;5114716;28;20274;-41
2023/10/09 13:08:36;;;;;;;;;;;16.80;99.90;;;;;;5115084;28;20461;-41
2023/10/09 13:11:10;;;;;;;;;;;16.70;99.90;;;;;;5114960;28;20382;-41
2023/10/09 13:13:50;;;;;;;;;;;16.70;99.90;;;;;;5115010;28;19982;-41
2023/10/09 13:16:23;;;;;;;;;;;16.70;99.90;;;;;;5114771;28;19924;-41
2023/10/09 13:19:01;;;;;;;;;;;16.70;99.90;;;;;;5114731;28;19931;-40
2023/10/09 13:21:31;;;;;;;;;;;16.70;99.90;;;;;;5114865;28;19928;-41
2023/10/09 13:23:57;;;;;;;;;;;16.70;99.90;;;;;;5114909;28;19924;-41
2023/10/09 13:26:34;;;;;;;;;;;16.70;99.90;;;;;;5113479;28;19934;-41
2023/10/09 13:29:01;;;;;;;;;;;16.70;99.90;;;;;;5114759;28;20390;-41
2023/10/09 13:31:27;;;;;;;;;;;16.80;99.90;;;;;;5114789;28;19949;-41
2023/10/09 13:33:58;;;;;;;;;;;16.80;99.90;;;;;;5114718;28;19934;-41
2023/10/09 13:36:27;;;;;;;;;;;16.70;99.90;;;;;;5114805;28;20264;-41
2023/10/09 13:38:54;;;;;;;;;;;16.80;99.90;;;;;;5114650;28;19928;-42
2023/10/09 13:41:20;;;;;;;;;;;16.80;99.90;;;;;;5114533;28;19924;-41
2023/10/09 13:43:45;;;;;;;;;;;16.80;99.90;;;;;;5114405;28;19931;-41
2023/10/09 13:46:17;;;;;;;;;;;16.70;99.90;;;;;;5096722;28;20307;-41
2023/10/09 13:48:43;;;;;;;;;;;16.70;99.90;;;;;;5114555;28;20412;-41
2023/10/09 13:51:13;;;;;;;;;;;16.70;99.90;;;;;;5114432;28;19924;-41
2023/10/09 13:53:44;;;;;;;;;;;16.70;99.90;;;;;;5114487;28;20014;-41
2023/10/09 13:56:19;;;;;;;;;;;16.70;99.90;;;;;;5114450;28;19968;-41
2023/10/09 13:58:50;;;;;;;;;;;16.70;99.90;;;;;;5114421;28;19976;-41
2023/10/09 14:01:27;;;;;;;;;;;16.60;99.90;;;;;;5116836;28;19924;-41
2023/10/09 14:03:54;;;;;;;;;;;16.70;99.90;;;;;;5118795;28;20302;-41
2023/10/09 14:06:30;;;;;;;;;;;16.60;99.90;;;;;;5118241;28;19924;-41
2023/10/09 14:08:56;;;;;;;;;;;16.60;99.90;;;;;;5118425;28;20010;-41
2023/10/09 14:11:22;;;;;;;;;;;16.60;99.90;;;;;;5118754;28;19989;-41
2023/10/09 14:13:48;;;;;;;;;;;16.70;99.90;;;;;;5118514;28;19971;-41
2023/10/09 14:16:27;;;;;;;;;;;16.60;99.90;;;;;;5118459;28;19923;-42
2023/10/09 14:18:56;;;;;;;;;;;16.70;99.90;;;;;;5118466;28;19935;-40
2023/10/09 14:21:25;;;;;;;;;;;16.70;99.90;;;;;;5118032;28;19926;-42
2023/10/09 14:23:55;;;;;;;;;;;16.70;99.90;;;;;;5118307;28;19945;-42
2023/10/09 14:26:22;;;;;;;;;;;16.70;99.90;;;;;;5118247;28;19924;-41
2023/10/09 14:28:48;;;;;;;;;;;16.80;99.90;;;;;;5118238;27;19924;-41
2023/10/09 14:31:20;;;;;;;;;;;16.80;99.90;;;;;;5118047;28;19924;-41
2023/10/09 14:33:51;;;;;;;;;;;16.80;99.90;;;;;;5118010;28;19969;-41
2023/10/09 14:36:18;;;;;;;;;;;16.80;99.90;;;;;;5118177;28;20281;-41
2023/10/09 14:38:46;;;;;;;;;;;16.80;99.90;;;;;;5118148;28;20022;-42
2023/10/09 14:41:12;;;;;;;;;;;16.80;99.90;;;;;;5118199;28;19928;-41
2023/10/09 14:43:38;;;;;;;;;;;16.80;99.90;;;;;;5117798;28;20337;-41
2023/10/09 14:46:10;;;;;;;;;;;16.80;99.90;;;;;;5116746;28;19978;-42
2023/10/09 14:48:39;;;;;;;;;;;16.80;99.90;;;;;;5117860;27;19927;-41
2023/10/09 14:51:04;;;;;;;;;;;16.80;99.90;;;;;;5116752;28;19923;-41
2023/10/09 14:53:30;;;;;;;;;;;16.80;99.90;;;;;;5117634;28;20010;-41
2023/10/09 14:56:01;;;;;;;;;;;16.70;99.90;;;;;;5117493;27;19930;-41
2023/10/09 14:58:29;;;;;;;;;;;16.80;99.90;;;;;;5117566;28;19924;-42
2023/10/09 15:00:54;;;;;;;;;;;16.70;99.90;;;;;;5117221;28;19963;-41
2023/10/09 15:03:22;;;;;;;;;;;16.80;99.90;;;;;;5117572;28;20357;-41
2023/10/09 15:05:48;;;;;;;;;;;16.70;99.90;;;;;;5116130;28;19924;-42
2023/10/09 15:08:14;;;;;;;;;;;16.70;99.90;;;;;;5117293;28;19923;-41
2023/10/09 15:10:47;;;;;;;;;;;16.70;99.90;;;;;;5116409;28;19931;-40
2023/10/09 15:13:13;;;;;;;;;;;16.70;99.90;;;;;;5116594;28;19936;-41
2023/10/09 15:15:42;;;;;;;;;;;16.70;99.90;;;;;;5117251;28;19947;-41
2023/10/09 15:18:07;;;;;;;;;;;16.70;99.90;;;;;;5117296;28;19930;-41
2023/10/09 15:20:34;;;;;;;;;;;16.70;99.90;;;;;;5117157;28;20027;-41
2023/10/09 15:23:01;;;;;;;;;;;16.70;99.90;;;;;;5115799;28;20390;-41
2023/10/09 15:25:26;;;;;;;;;;;16.70;99.90;;;;;;5117212;28;19924;-42
2023/10/09 15:27:52;;;;;;;;;;;16.70;99.90;;;;;;5116810;28;20378;-41
2023/10/09 15:30:18;;;;;;;;;;;16.70;99.90;;;;;;5116704;28;19928;-43
2023/10/09 15:32:43;;;;;;;;;;;16.70;99.90;;;;;;5116922;28;20018;-41
2023/10/09 15:35:09;;;;;;;;;;;16.70;99.90;;;;;;5116813;28;19992;-42
2023/10/09 15:37:40;;;;;;;;;;;16.70;99.90;;;;;;5116841;28;19924;-42
2023/10/09 15:40:07;;;;;;;;;;;16.70;99.90;;;;;;5116730;28;19924;-42
2023/10/09 15:42:32;;;;;;;;;;;16.70;99.90;;;;;;5116438;28;20418;-41
2023/10/09 15:45:00;;;;;;;;;;;16.70;99.90;;;;;;5116495;28;19924;-43
2023/10/09 15:47:25;;;;;;;;;;;16.70;99.90;;;;;;5116775;28;19924;-42
2023/10/09 15:49:54;;;;;;;;;;;16.70;99.90;;;;;;5116814;28;19924;-42
2023/10/09 15:52:20;;;;;;;;;;;16.70;99.90;;;;;;5116380;28;20370;-42
2023/10/09 15:54:47;;;;;;;;;;;16.70;99.90;;;;;;5116434;28;19923;-42
2023/10/09 15:57:13;;;;;;;;;;;16.70;99.90;;;;;;5116418;28;19934;-42
2023/10/09 15:59:39;;;;;;;;;;;16.70;99.90;;;;;;5116333;28;19923;-41
2023/10/09 16:02:05;;;;;;;;;;;16.70;99.90;;;;;;5116351;28;19924;-41
2023/10/09 16:04:33;;;;;;;;;;;16.70;99.90;;;;;;5116639;28;19924;-43
2023/10/09 16:07:00;;;;;;;;;;;16.70;99.90;;;;;;5115984;28;19924;-42
2023/10/09 16:09:26;;;;;;;;;;;16.60;99.90;;;;;;5116036;28;19971;-42
2023/10/09 16:11:53;;;;;;;;;;;16.60;99.90;;;;;;5116011;28;20016;-42
2023/10/09 16:14:19;;;;;;;;;;;16.60;99.90;;;;;;5116093;28;20359;-43
2023/10/09 16:16:45;;;;;;;;;;;16.60;99.90;;;;;;5114968;28;19973;-41
2023/10/09 16:19:11;;;;;;;;;;;16.60;99.90;;;;;;5116290;28;19966;-42
2023/10/09 16:21:37;;;;;;;;;;;16.50;99.90;;;;;;5115771;28;20450;-42
2023/10/09 16:24:06;;;;;;;;;;;16.60;99.90;;;;;;5114962;28;19978;-42
2023/10/09 16:26:39;;;;;;;;;;;16.50;99.90;;;;;;5115599;28;20286;-41
2023/10/09 16:29:11;;;;;;;;;;;16.50;99.90;;;;;;5116255;28;19924;-43
2023/10/09 16:31:37;;;;;;;;;;;16.50;99.90;;;;;;5115726;28;19923;-43
2023/10/09 16:34:04;;;;;;;;;;;16.50;99.90;;;;;;5115745;27;19952;-41
2023/10/09 16:36:30;;;;;;;;;;;16.50;99.90;;;;;;5115537;28;19968;-42
2023/10/09 16:38:58;;;;;;;;;;;16.50;99.90;;;;;;5115545;28;19924;-42
2023/10/09 16:41:25;;;;;;;;;;;16.50;99.90;;;;;;5115496;28;19923;-42
2023/10/09 16:43:52;;;;;;;;;;;16.50;99.90;;;;;;5115499;28;19923;-42
2023/10/09 16:46:21;;;;;;;;;;;16.50;99.90;;;;;;5115598;28;20286;-41
2023/10/09 16:48:55;;;;;;;;;;;16.40;99.90;;;;;;5115558;28;19924;-41